sensor_id;sensor_type;location;lat;lon;timestamp;P1;durP1;ratioP1;P2;durP2;ratioP2
5125;SDS011;63008;53.112;8.896;2023-06-05T00:00:46;10.20;;;5.60;;
5125;SDS011;63008;53.112;8.896;2023-06-05T00:02:48;9.57;;;5.33;;
5125;SDS011;63008;53.112;8.896;2023-06-05T00:04:49;10.33;;;5.33;;
5125;SDS011;63008;53.112;8.896;2023-06-05T00:06:50;8.23;;;5.30;;
5125;SDS011;63008;53.112;8.896;2023-06-05T00:08:53;6.20;;;5.00;;
5125;SDS011;63008;53.112;8.896;2023-06-05T00:10:54;10.20;;;5.73;;
5125;SDS011;63008;53.112;8.896;2023-06-05T00:12:55;6.10;;;5.50;;
5125;SDS011;63008;53.112;8.896;2023-06-05T00:14:56;9.20;;;5.87;;
5125;SDS011;63008;53.112;8.896;2023-06-05T00:16:57;6.23;;;5.63;;
5125;SDS011;63008;53.112;8.896;2023-06-05T00:18:58;19.93;;;6.83;;
5125;SDS011;63008;53.112;8.896;2023-06-05T00:20:59;16.13;;;6.20;;
5125;SDS011;63008;53.112;8.896;2023-06-05T00:23:00;11.50;;;6.57;;
5125;SDS011;63008;53.112;8.896;2023-06-05T00:25:01;13.00;;;5.77;;
5125;SDS011;63008;53.112;8.896;2023-06-05T00:27:03;10.80;;;6.50;;
5125;SDS011;63008;53.112;8.896;2023-06-05T00:29:04;11.90;;;6.40;;
5125;SDS011;63008;53.112;8.896;2023-06-05T00:31:05;8.43;;;6.47;;
5125;SDS011;63008;53.112;8.896;2023-06-05T00:33:06;11.10;;;7.13;;
5125;SDS011;63008;53.112;8.896;2023-06-05T00:35:07;9.60;;;6.70;;
5125;SDS011;63008;53.112;8.896;2023-06-05T00:37:09;11.27;;;7.47;;
5125;SDS011;63008;53.112;8.896;2023-06-05T00:39:12;13.70;;;7.93;;
5125;SDS011;63008;53.112;8.896;2023-06-05T00:41:12;8.87;;;7.10;;
5125;SDS011;63008;53.112;8.896;2023-06-05T00:43:13;13.97;;;7.30;;
5125;SDS011;63008;53.112;8.896;2023-06-05T00:45:14;7.73;;;7.13;;
5125;SDS011;63008;53.112;8.896;2023-06-05T00:47:15;16.07;;;7.60;;
5125;SDS011;63008;53.112;8.896;2023-06-05T00:49:17;9.43;;;7.50;;
5125;SDS011;63008;53.112;8.896;2023-06-05T00:51:18;12.40;;;7.97;;
5125;SDS011;63008;53.112;8.896;2023-06-05T00:53:20;13.20;;;8.47;;
5125;SDS011;63008;53.112;8.896;2023-06-05T00:55:22;12.00;;;8.10;;
5125;SDS011;63008;53.112;8.896;2023-06-05T00:57:23;14.00;;;8.13;;
5125;SDS011;63008;53.112;8.896;2023-06-05T00:59:27;11.80;;;7.70;;
5125;SDS011;63008;53.112;8.896;2023-06-05T01:01:30;16.50;;;7.67;;
5125;SDS011;63008;53.112;8.896;2023-06-05T01:03:33;8.23;;;6.87;;
5125;SDS011;63008;53.112;8.896;2023-06-05T01:05:35;10.00;;;7.37;;
5125;SDS011;63008;53.112;8.896;2023-06-05T01:07:37;10.37;;;6.30;;
5125;SDS011;63008;53.112;8.896;2023-06-05T01:09:41;15.73;;;7.67;;
5125;SDS011;63008;53.112;8.896;2023-06-05T01:11:48;12.20;;;8.30;;
5125;SDS011;63008;53.112;8.896;2023-06-05T01:13:55;12.50;;;8.20;;
5125;SDS011;63008;53.112;8.896;2023-06-05T01:16:03;13.20;;;8.73;;
5125;SDS011;63008;53.112;8.896;2023-06-05T01:18:05;9.83;;;8.17;;
5125;SDS011;63008;53.112;8.896;2023-06-05T01:20:07;12.00;;;9.30;;
5125;SDS011;63008;53.112;8.896;2023-06-05T01:22:09;13.33;;;8.67;;
5125;SDS011;63008;53.112;8.896;2023-06-05T01:24:10;10.53;;;9.43;;
5125;SDS011;63008;53.112;8.896;2023-06-05T01:26:18;14.63;;;8.90;;
5125;SDS011;63008;53.112;8.896;2023-06-05T01:28:25;12.20;;;8.60;;
5125;SDS011;63008;53.112;8.896;2023-06-05T01:30:30;13.30;;;8.67;;
5125;SDS011;63008;53.112;8.896;2023-06-05T01:32:46;9.50;;;8.33;;
5125;SDS011;63008;53.112;8.896;2023-06-05T01:34:54;16.27;;;9.73;;
5125;SDS011;63008;53.112;8.896;2023-06-05T01:36:55;9.27;;;8.20;;
5125;SDS011;63008;53.112;8.896;2023-06-05T01:38:57;16.33;;;9.10;;
5125;SDS011;63008;53.112;8.896;2023-06-05T01:41:00;10.63;;;9.00;;
5125;SDS011;63008;53.112;8.896;2023-06-05T01:43:04;11.67;;;8.80;;
5125;SDS011;63008;53.112;8.896;2023-06-05T01:45:07;8.80;;;7.50;;
5125;SDS011;63008;53.112;8.896;2023-06-05T01:47:09;11.43;;;8.37;;
5125;SDS011;63008;53.112;8.896;2023-06-05T01:49:11;9.47;;;7.80;;
5125;SDS011;63008;53.112;8.896;2023-06-05T01:51:12;15.63;;;10.17;;
5125;SDS011;63008;53.112;8.896;2023-06-05T01:53:13;9.97;;;9.00;;
5125;SDS011;63008;53.112;8.896;2023-06-05T01:55:15;11.33;;;8.50;;
5125;SDS011;63008;53.112;8.896;2023-06-05T01:57:19;10.87;;;8.70;;
5125;SDS011;63008;53.112;8.896;2023-06-05T01:59:19;8.00;;;7.20;;
5125;SDS011;63008;53.112;8.896;2023-06-05T02:01:20;9.43;;;7.73;;
5125;SDS011;63008;53.112;8.896;2023-06-05T02:03:23;10.53;;;7.43;;
5125;SDS011;63008;53.112;8.896;2023-06-05T02:05:25;12.20;;;8.53;;
5125;SDS011;63008;53.112;8.896;2023-06-05T02:07:30;10.27;;;8.07;;
5125;SDS011;63008;53.112;8.896;2023-06-05T02:09:33;9.90;;;8.20;;
5125;SDS011;63008;53.112;8.896;2023-06-05T02:11:34;8.67;;;7.57;;
5125;SDS011;63008;53.112;8.896;2023-06-05T02:13:38;13.53;;;8.57;;
5125;SDS011;63008;53.112;8.896;2023-06-05T02:15:40;10.53;;;8.60;;
5125;SDS011;63008;53.112;8.896;2023-06-05T02:17:42;13.80;;;9.00;;
5125;SDS011;63008;53.112;8.896;2023-06-05T02:19:53;11.37;;;9.33;;
5125;SDS011;63008;53.112;8.896;2023-06-05T02:21:54;13.90;;;9.30;;
5125;SDS011;63008;53.112;8.896;2023-06-05T02:23:55;12.07;;;9.00;;
5125;SDS011;63008;53.112;8.896;2023-06-05T02:25:58;16.53;;;10.67;;
5125;SDS011;63008;53.112;8.896;2023-06-05T02:27:59;13.60;;;10.03;;
5125;SDS011;63008;53.112;8.896;2023-06-05T02:30:00;10.57;;;9.47;;
5125;SDS011;63008;53.112;8.896;2023-06-05T02:32:01;10.90;;;8.30;;
5125;SDS011;63008;53.112;8.896;2023-06-05T02:34:02;11.60;;;9.13;;
5125;SDS011;63008;53.112;8.896;2023-06-05T02:36:03;11.63;;;8.70;;
5125;SDS011;63008;53.112;8.896;2023-06-05T02:38:04;9.93;;;8.93;;
5125;SDS011;63008;53.112;8.896;2023-06-05T02:40:06;10.37;;;8.57;;
5125;SDS011;63008;53.112;8.896;2023-06-05T02:42:08;13.87;;;9.73;;
5125;SDS011;63008;53.112;8.896;2023-06-05T02:44:09;12.37;;;8.90;;
5125;SDS011;63008;53.112;8.896;2023-06-05T02:46:10;9.73;;;8.33;;
5125;SDS011;63008;53.112;8.896;2023-06-05T02:48:11;10.50;;;8.93;;
5125;SDS011;63008;53.112;8.896;2023-06-05T02:50:12;15.17;;;9.57;;
5125;SDS011;63008;53.112;8.896;2023-06-05T02:52:13;19.40;;;10.23;;
5125;SDS011;63008;53.112;8.896;2023-06-05T02:54:14;18.40;;;10.63;;
5125;SDS011;63008;53.112;8.896;2023-06-05T02:56:15;11.33;;;10.00;;
5125;SDS011;63008;53.112;8.896;2023-06-05T02:58:17;13.80;;;10.70;;
5125;SDS011;63008;53.112;8.896;2023-06-05T03:00:18;12.67;;;9.53;;
5125;SDS011;63008;53.112;8.896;2023-06-05T03:02:19;13.60;;;11.07;;
5125;SDS011;63008;53.112;8.896;2023-06-05T03:04:21;15.23;;;10.47;;
5125;SDS011;63008;53.112;8.896;2023-06-05T03:06:23;12.83;;;10.47;;
5125;SDS011;63008;53.112;8.896;2023-06-05T03:08:27;11.50;;;10.00;;
5125;SDS011;63008;53.112;8.896;2023-06-05T03:10:29;18.00;;;12.03;;
5125;SDS011;63008;53.112;8.896;2023-06-05T03:12:30;17.23;;;12.07;;
5125;SDS011;63008;53.112;8.896;2023-06-05T03:14:31;16.20;;;12.10;;
5125;SDS011;63008;53.112;8.896;2023-06-05T03:16:32;18.37;;;12.57;;
5125;SDS011;63008;53.112;8.896;2023-06-05T03:18:42;16.90;;;11.73;;
5125;SDS011;63008;53.112;8.896;2023-06-05T03:20:43;16.83;;;11.80;;
5125;SDS011;63008;53.112;8.896;2023-06-05T03:22:44;14.20;;;11.20;;
5125;SDS011;63008;53.112;8.896;2023-06-05T03:24:45;13.00;;;10.17;;
5125;SDS011;63008;53.112;8.896;2023-06-05T03:26:46;13.67;;;10.70;;
5125;SDS011;63008;53.112;8.896;2023-06-05T03:28:47;18.40;;;12.57;;
5125;SDS011;63008;53.112;8.896;2023-06-05T03:30:48;17.97;;;12.90;;
5125;SDS011;63008;53.112;8.896;2023-06-05T03:32:49;20.53;;;12.13;;
5125;SDS011;63008;53.112;8.896;2023-06-05T03:34:50;16.67;;;13.30;;
5125;SDS011;63008;53.112;8.896;2023-06-05T03:36:52;23.10;;;12.80;;
5125;SDS011;63008;53.112;8.896;2023-06-05T03:38:53;18.20;;;13.43;;
5125;SDS011;63008;53.112;8.896;2023-06-05T03:40:54;19.20;;;12.40;;
5125;SDS011;63008;53.112;8.896;2023-06-05T03:42:55;24.77;;;13.50;;
5125;SDS011;63008;53.112;8.896;2023-06-05T03:44:56;27.90;;;14.07;;
5125;SDS011;63008;53.112;8.896;2023-06-05T03:46:57;18.13;;;12.60;;
5125;SDS011;63008;53.112;8.896;2023-06-05T03:48:58;22.63;;;12.80;;
5125;SDS011;63008;53.112;8.896;2023-06-05T03:51:00;20.37;;;14.13;;
5125;SDS011;63008;53.112;8.896;2023-06-05T03:53:01;19.60;;;13.20;;
5125;SDS011;63008;53.112;8.896;2023-06-05T03:55:05;24.80;;;13.90;;
5125;SDS011;63008;53.112;8.896;2023-06-05T03:57:08;21.40;;;12.17;;
5125;SDS011;63008;53.112;8.896;2023-06-05T03:59:12;18.07;;;11.90;;
5125;SDS011;63008;53.112;8.896;2023-06-05T04:01:20;19.63;;;12.23;;
5125;SDS011;63008;53.112;8.896;2023-06-05T04:03:21;20.93;;;12.60;;
5125;SDS011;63008;53.112;8.896;2023-06-05T04:05:22;19.03;;;12.13;;
5125;SDS011;63008;53.112;8.896;2023-06-05T04:07:23;19.27;;;13.50;;
5125;SDS011;63008;53.112;8.896;2023-06-05T04:09:24;23.43;;;12.83;;
5125;SDS011;63008;53.112;8.896;2023-06-05T04:11:25;23.07;;;14.10;;
5125;SDS011;63008;53.112;8.896;2023-06-05T04:13:30;20.17;;;13.50;;
5125;SDS011;63008;53.112;8.896;2023-06-05T04:15:31;24.10;;;14.20;;
5125;SDS011;63008;53.112;8.896;2023-06-05T04:17:34;22.83;;;13.47;;
5125;SDS011;63008;53.112;8.896;2023-06-05T04:19:35;22.87;;;12.77;;
5125;SDS011;63008;53.112;8.896;2023-06-05T04:21:36;21.37;;;13.77;;
5125;SDS011;63008;53.112;8.896;2023-06-05T04:23:41;20.80;;;14.30;;
5125;SDS011;63008;53.112;8.896;2023-06-05T04:25:41;20.67;;;13.00;;
5125;SDS011;63008;53.112;8.896;2023-06-05T04:27:46;19.60;;;13.60;;
5125;SDS011;63008;53.112;8.896;2023-06-05T04:29:50;20.50;;;13.53;;
5125;SDS011;63008;53.112;8.896;2023-06-05T04:31:53;17.17;;;12.70;;
5125;SDS011;63008;53.112;8.896;2023-06-05T04:33:54;18.00;;;12.90;;
5125;SDS011;63008;53.112;8.896;2023-06-05T04:35:55;20.33;;;13.20;;
5125;SDS011;63008;53.112;8.896;2023-06-05T04:37:56;21.67;;;14.33;;
5125;SDS011;63008;53.112;8.896;2023-06-05T04:39:57;15.33;;;12.43;;
5125;SDS011;63008;53.112;8.896;2023-06-05T04:41:59;18.40;;;13.07;;
5125;SDS011;63008;53.112;8.896;2023-06-05T04:44:00;20.47;;;13.10;;
5125;SDS011;63008;53.112;8.896;2023-06-05T04:46:01;22.20;;;12.80;;
5125;SDS011;63008;53.112;8.896;2023-06-05T04:48:03;17.60;;;12.80;;
5125;SDS011;63008;53.112;8.896;2023-06-05T04:50:04;23.67;;;13.03;;
5125;SDS011;63008;53.112;8.896;2023-06-05T04:52:07;17.40;;;12.30;;
5125;SDS011;63008;53.112;8.896;2023-06-05T04:54:08;19.90;;;13.33;;
5125;SDS011;63008;53.112;8.896;2023-06-05T04:56:09;18.17;;;12.53;;
5125;SDS011;63008;53.112;8.896;2023-06-05T04:58:10;23.77;;;12.97;;
5125;SDS011;63008;53.112;8.896;2023-06-05T05:00:11;23.07;;;11.53;;
5125;SDS011;63008;53.112;8.896;2023-06-05T05:02:12;18.90;;;12.30;;
5125;SDS011;63008;53.112;8.896;2023-06-05T05:04:13;13.80;;;10.90;;
5125;SDS011;63008;53.112;8.896;2023-06-05T05:06:14;16.90;;;10.77;;
5125;SDS011;63008;53.112;8.896;2023-06-05T05:08:16;21.30;;;11.10;;
5125;SDS011;63008;53.112;8.896;2023-06-05T05:10:17;18.43;;;11.37;;
5125;SDS011;63008;53.112;8.896;2023-06-05T05:12:18;18.27;;;10.80;;
5125;SDS011;63008;53.112;8.896;2023-06-05T05:14:19;13.10;;;11.00;;
5125;SDS011;63008;53.112;8.896;2023-06-05T05:16:20;12.93;;;9.70;;
5125;SDS011;63008;53.112;8.896;2023-06-05T05:18:23;14.60;;;10.97;;
5125;SDS011;63008;53.112;8.896;2023-06-05T05:20:24;14.90;;;11.47;;
5125;SDS011;63008;53.112;8.896;2023-06-05T05:22:25;14.77;;;10.40;;
5125;SDS011;63008;53.112;8.896;2023-06-05T05:24:26;19.07;;;10.70;;
5125;SDS011;63008;53.112;8.896;2023-06-05T05:26:27;16.73;;;12.07;;
5125;SDS011;63008;53.112;8.896;2023-06-05T05:28:28;15.33;;;11.80;;
5125;SDS011;63008;53.112;8.896;2023-06-05T05:30:30;16.20;;;9.57;;
5125;SDS011;63008;53.112;8.896;2023-06-05T05:32:31;12.93;;;9.20;;
5125;SDS011;63008;53.112;8.896;2023-06-05T05:34:32;13.47;;;9.90;;
5125;SDS011;63008;53.112;8.896;2023-06-05T05:36:34;13.87;;;9.90;;
5125;SDS011;63008;53.112;8.896;2023-06-05T05:38:37;13.30;;;9.50;;
5125;SDS011;63008;53.112;8.896;2023-06-05T05:40:37;19.20;;;10.00;;
5125;SDS011;63008;53.112;8.896;2023-06-05T05:42:38;11.50;;;9.97;;
5125;SDS011;63008;53.112;8.896;2023-06-05T05:44:39;15.50;;;9.90;;
5125;SDS011;63008;53.112;8.896;2023-06-05T05:46:45;12.63;;;8.70;;
5125;SDS011;63008;53.112;8.896;2023-06-05T05:48:47;16.13;;;10.17;;
5125;SDS011;63008;53.112;8.896;2023-06-05T05:50:49;17.07;;;9.40;;
5125;SDS011;63008;53.112;8.896;2023-06-05T05:52:50;12.67;;;9.57;;
5125;SDS011;63008;53.112;8.896;2023-06-05T05:54:53;16.17;;;8.90;;
5125;SDS011;63008;53.112;8.896;2023-06-05T05:56:54;13.50;;;8.37;;
5125;SDS011;63008;53.112;8.896;2023-06-05T05:58:55;21.23;;;9.03;;
5125;SDS011;63008;53.112;8.896;2023-06-05T06:00:56;16.30;;;8.60;;
5125;SDS011;63008;53.112;8.896;2023-06-05T06:02:58;12.50;;;9.10;;
5125;SDS011;63008;53.112;8.896;2023-06-05T06:04:59;11.83;;;9.63;;
5125;SDS011;63008;53.112;8.896;2023-06-05T06:07:03;14.47;;;8.33;;
5125;SDS011;63008;53.112;8.896;2023-06-05T06:09:06;17.00;;;8.90;;
5125;SDS011;63008;53.112;8.896;2023-06-05T06:11:09;13.97;;;8.77;;
5125;SDS011;63008;53.112;8.896;2023-06-05T06:13:10;11.53;;;8.63;;
5125;SDS011;63008;53.112;8.896;2023-06-05T06:15:11;14.17;;;8.03;;
5125;SDS011;63008;53.112;8.896;2023-06-05T06:17:12;19.60;;;9.57;;
5125;SDS011;63008;53.112;8.896;2023-06-05T06:19:13;15.50;;;8.83;;
5125;SDS011;63008;53.112;8.896;2023-06-05T06:21:14;13.40;;;9.10;;
5125;SDS011;63008;53.112;8.896;2023-06-05T06:23:16;15.77;;;9.30;;
5125;SDS011;63008;53.112;8.896;2023-06-05T06:25:17;16.27;;;8.53;;
5125;SDS011;63008;53.112;8.896;2023-06-05T06:27:21;12.00;;;8.67;;
5125;SDS011;63008;53.112;8.896;2023-06-05T06:29:23;10.37;;;8.77;;
5125;SDS011;63008;53.112;8.896;2023-06-05T06:31:25;10.97;;;7.93;;
5125;SDS011;63008;53.112;8.896;2023-06-05T06:33:26;16.93;;;8.90;;
5125;SDS011;63008;53.112;8.896;2023-06-05T06:35:27;22.90;;;15.43;;
5125;SDS011;63008;53.112;8.896;2023-06-05T06:37:29;14.67;;;9.30;;
5125;SDS011;63008;53.112;8.896;2023-06-05T06:39:31;15.53;;;7.80;;
5125;SDS011;63008;53.112;8.896;2023-06-05T06:41:32;17.33;;;8.50;;
5125;SDS011;63008;53.112;8.896;2023-06-05T06:43:33;16.13;;;9.23;;
5125;SDS011;63008;53.112;8.896;2023-06-05T06:45:34;10.33;;;8.30;;
5125;SDS011;63008;53.112;8.896;2023-06-05T06:47:35;17.77;;;8.30;;
5125;SDS011;63008;53.112;8.896;2023-06-05T06:49:36;16.00;;;8.43;;
5125;SDS011;63008;53.112;8.896;2023-06-05T06:51:37;12.80;;;7.47;;
5125;SDS011;63008;53.112;8.896;2023-06-05T06:53:38;12.23;;;7.27;;
5125;SDS011;63008;53.112;8.896;2023-06-05T06:55:52;15.43;;;8.60;;
5125;SDS011;63008;53.112;8.896;2023-06-05T06:57:52;11.33;;;8.80;;
5125;SDS011;63008;53.112;8.896;2023-06-05T06:59:53;10.63;;;8.60;;
5125;SDS011;63008;53.112;8.896;2023-06-05T07:02:07;15.23;;;8.47;;
5125;SDS011;63008;53.112;8.896;2023-06-05T07:04:14;10.43;;;8.37;;
5125;SDS011;63008;53.112;8.896;2023-06-05T07:06:17;14.30;;;9.00;;
5125;SDS011;63008;53.112;8.896;2023-06-05T07:08:21;15.87;;;8.90;;
5125;SDS011;63008;53.112;8.896;2023-06-05T07:10:22;14.20;;;7.13;;
5125;SDS011;63008;53.112;8.896;2023-06-05T07:12:23;10.97;;;7.93;;
5125;SDS011;63008;53.112;8.896;2023-06-05T07:14:24;10.73;;;7.00;;
5125;SDS011;63008;53.112;8.896;2023-06-05T07:16:25;9.70;;;7.10;;
5125;SDS011;63008;53.112;8.896;2023-06-05T07:18:26;11.80;;;7.63;;
5125;SDS011;63008;53.112;8.896;2023-06-05T07:20:27;20.27;;;7.40;;
5125;SDS011;63008;53.112;8.896;2023-06-05T07:22:28;12.43;;;7.50;;
5125;SDS011;63008;53.112;8.896;2023-06-05T07:24:31;14.10;;;7.30;;
5125;SDS011;63008;53.112;8.896;2023-06-05T07:26:33;13.93;;;7.27;;
5125;SDS011;63008;53.112;8.896;2023-06-05T07:28:34;8.97;;;7.00;;
5125;SDS011;63008;53.112;8.896;2023-06-05T07:30:35;12.10;;;7.37;;
5125;SDS011;63008;53.112;8.896;2023-06-05T07:32:37;13.13;;;7.90;;
5125;SDS011;63008;53.112;8.896;2023-06-05T07:34:38;8.60;;;6.77;;
5125;SDS011;63008;53.112;8.896;2023-06-05T07:36:39;12.07;;;7.50;;
5125;SDS011;63008;53.112;8.896;2023-06-05T07:38:40;7.77;;;7.00;;
5125;SDS011;63008;53.112;8.896;2023-06-05T07:40:41;10.40;;;7.70;;
5125;SDS011;63008;53.112;8.896;2023-06-05T07:42:42;15.17;;;6.90;;
5125;SDS011;63008;53.112;8.896;2023-06-05T07:44:43;11.73;;;8.00;;
5125;SDS011;63008;53.112;8.896;2023-06-05T07:46:44;9.07;;;6.80;;
5125;SDS011;63008;53.112;8.896;2023-06-05T07:48:46;11.47;;;7.30;;
5125;SDS011;63008;53.112;8.896;2023-06-05T07:50:47;10.90;;;6.93;;
5125;SDS011;63008;53.112;8.896;2023-06-05T07:52:48;19.47;;;7.60;;
5125;SDS011;63008;53.112;8.896;2023-06-05T07:54:49;10.43;;;6.73;;
5125;SDS011;63008;53.112;8.896;2023-06-05T07:56:50;18.10;;;7.13;;
5125;SDS011;63008;53.112;8.896;2023-06-05T07:58:51;13.03;;;6.80;;
5125;SDS011;63008;53.112;8.896;2023-06-05T08:00:53;10.20;;;6.40;;
5125;SDS011;63008;53.112;8.896;2023-06-05T08:02:54;12.63;;;7.07;;
5125;SDS011;63008;53.112;8.896;2023-06-05T08:04:55;9.13;;;6.20;;
5125;SDS011;63008;53.112;8.896;2023-06-05T08:06:56;9.07;;;5.60;;
5125;SDS011;63008;53.112;8.896;2023-06-05T08:08:58;6.63;;;5.97;;
5125;SDS011;63008;53.112;8.896;2023-06-05T08:11:00;12.20;;;6.03;;
5125;SDS011;63008;53.112;8.896;2023-06-05T08:13:00;6.43;;;5.63;;
5125;SDS011;63008;53.112;8.896;2023-06-05T08:15:01;9.03;;;6.73;;
5125;SDS011;63008;53.112;8.896;2023-06-05T08:17:03;7.63;;;5.87;;
5125;SDS011;63008;53.112;8.896;2023-06-05T08:19:04;9.47;;;6.03;;
5125;SDS011;63008;53.112;8.896;2023-06-05T08:21:05;7.87;;;5.73;;
5125;SDS011;63008;53.112;8.896;2023-06-05T08:23:06;11.20;;;5.97;;
5125;SDS011;63008;53.112;8.896;2023-06-05T08:25:07;8.10;;;5.40;;
5125;SDS011;63008;53.112;8.896;2023-06-05T08:27:09;9.00;;;6.07;;
5125;SDS011;63008;53.112;8.896;2023-06-05T08:29:10;18.57;;;7.23;;
5125;SDS011;63008;53.112;8.896;2023-06-05T08:31:12;8.57;;;6.03;;
5125;SDS011;63008;53.112;8.896;2023-06-05T08:33:13;9.13;;;6.30;;
5125;SDS011;63008;53.112;8.896;2023-06-05T08:35:14;41.13;;;24.40;;
5125;SDS011;63008;53.112;8.896;2023-06-05T08:37:15;10.70;;;5.50;;
5125;SDS011;63008;53.112;8.896;2023-06-05T08:39:17;7.40;;;6.50;;
5125;SDS011;63008;53.112;8.896;2023-06-05T08:41:18;6.50;;;5.90;;
5125;SDS011;63008;53.112;8.896;2023-06-05T08:43:19;9.00;;;5.80;;
5125;SDS011;63008;53.112;8.896;2023-06-05T08:45:21;13.13;;;5.57;;
5125;SDS011;63008;53.112;8.896;2023-06-05T08:47:22;5.63;;;5.07;;
5125;SDS011;63008;53.112;8.896;2023-06-05T08:49:27;7.67;;;5.40;;
5125;SDS011;63008;53.112;8.896;2023-06-05T08:51:37;11.73;;;5.73;;
5125;SDS011;63008;53.112;8.896;2023-06-05T08:53:41;5.40;;;4.90;;
5125;SDS011;63008;53.112;8.896;2023-06-05T08:55:45;7.17;;;5.57;;
5125;SDS011;63008;53.112;8.896;2023-06-05T08:57:47;6.63;;;4.97;;
5125;SDS011;63008;53.112;8.896;2023-06-05T08:59:48;6.03;;;5.00;;
5125;SDS011;63008;53.112;8.896;2023-06-05T09:01:50;5.90;;;5.30;;
5125;SDS011;63008;53.112;8.896;2023-06-05T09:03:51;7.70;;;4.53;;
5125;SDS011;63008;53.112;8.896;2023-06-05T09:05:52;8.27;;;5.30;;
5125;SDS011;63008;53.112;8.896;2023-06-05T09:07:53;10.93;;;5.50;;
5125;SDS011;63008;53.112;8.896;2023-06-05T09:09:55;5.83;;;5.03;;
5125;SDS011;63008;53.112;8.896;2023-06-05T09:12:03;6.83;;;5.13;;
5125;SDS011;63008;53.112;8.896;2023-06-05T09:14:05;8.30;;;5.20;;
5125;SDS011;63008;53.112;8.896;2023-06-05T09:16:07;9.37;;;5.83;;
5125;SDS011;63008;53.112;8.896;2023-06-05T09:18:11;11.20;;;5.30;;
5125;SDS011;63008;53.112;8.896;2023-06-05T09:20:24;8.03;;;5.00;;
5125;SDS011;63008;53.112;8.896;2023-06-05T09:22:33;12.60;;;5.80;;
5125;SDS011;63008;53.112;8.896;2023-06-05T09:24:35;9.37;;;5.50;;
5125;SDS011;63008;53.112;8.896;2023-06-05T09:28:59;8.20;;;4.97;;
5125;SDS011;63008;53.112;8.896;2023-06-05T09:31:01;6.80;;;5.17;;
5125;SDS011;63008;53.112;8.896;2023-06-05T09:33:09;13.53;;;5.63;;
5125;SDS011;63008;53.112;8.896;2023-06-05T09:35:15;10.23;;;5.47;;
5125;SDS011;63008;53.112;8.896;2023-06-05T09:37:17;9.07;;;5.03;;
5125;SDS011;63008;53.112;8.896;2023-06-05T09:39:18;6.97;;;4.93;;
5125;SDS011;63008;53.112;8.896;2023-06-05T09:41:20;6.93;;;4.93;;
5125;SDS011;63008;53.112;8.896;2023-06-05T09:43:22;5.07;;;4.53;;
5125;SDS011;63008;53.112;8.896;2023-06-05T09:45:25;9.03;;;4.10;;
5125;SDS011;63008;53.112;8.896;2023-06-05T09:47:41;5.60;;;4.13;;
5125;SDS011;63008;53.112;8.896;2023-06-05T09:51:43;13.27;;;3.73;;
5125;SDS011;63008;53.112;8.896;2023-06-05T09:53:45;7.93;;;4.30;;
5125;SDS011;63008;53.112;8.896;2023-06-05T09:55:47;4.30;;;3.77;;
5125;SDS011;63008;53.112;8.896;2023-06-05T09:57:48;9.93;;;4.50;;
5125;SDS011;63008;53.112;8.896;2023-06-05T09:59:50;8.27;;;4.20;;
5125;SDS011;63008;53.112;8.896;2023-06-05T10:01:53;5.40;;;3.03;;
5125;SDS011;63008;53.112;8.896;2023-06-05T10:04:00;5.23;;;3.80;;
5125;SDS011;63008;53.112;8.896;2023-06-05T10:06:08;6.20;;;3.80;;
5125;SDS011;63008;53.112;8.896;2023-06-05T10:08:10;6.00;;;4.63;;
5125;SDS011;63008;53.112;8.896;2023-06-05T10:10:13;5.60;;;4.30;;
5125;SDS011;63008;53.112;8.896;2023-06-05T10:12:15;5.00;;;4.50;;
5125;SDS011;63008;53.112;8.896;2023-06-05T10:14:17;5.80;;;3.67;;
5125;SDS011;63008;53.112;8.896;2023-06-05T10:16:20;6.30;;;3.63;;
5125;SDS011;63008;53.112;8.896;2023-06-05T10:18:22;8.00;;;4.10;;
5125;SDS011;63008;53.112;8.896;2023-06-05T10:20:23;6.07;;;3.43;;
5125;SDS011;63008;53.112;8.896;2023-06-05T10:22:24;4.53;;;3.50;;
5125;SDS011;63008;53.112;8.896;2023-06-05T10:24:31;7.30;;;3.50;;
5125;SDS011;63008;53.112;8.896;2023-06-05T10:31:47;4.70;;;3.27;;
5125;SDS011;63008;53.112;8.896;2023-06-05T10:36:33;4.23;;;3.50;;
5125;SDS011;63008;53.112;8.896;2023-06-05T10:38:56;7.83;;;4.10;;
5125;SDS011;63008;53.112;8.896;2023-06-05T10:40:58;10.30;;;3.77;;
5125;SDS011;63008;53.112;8.896;2023-06-05T10:45:31;5.37;;;3.40;;
5125;SDS011;63008;53.112;8.896;2023-06-05T10:49:33;4.07;;;2.70;;
5125;SDS011;63008;53.112;8.896;2023-06-05T10:51:36;8.83;;;3.63;;
5125;SDS011;63008;53.112;8.896;2023-06-05T10:53:41;5.60;;;3.27;;
5125;SDS011;63008;53.112;8.896;2023-06-05T10:55:44;8.57;;;3.67;;
5125;SDS011;63008;53.112;8.896;2023-06-05T11:00:05;6.73;;;3.40;;
5125;SDS011;63008;53.112;8.896;2023-06-05T11:04:12;4.67;;;2.50;;
5125;SDS011;63008;53.112;8.896;2023-06-05T11:06:13;4.80;;;3.50;;
5125;SDS011;63008;53.112;8.896;2023-06-05T11:08:15;7.50;;;3.00;;
5125;SDS011;63008;53.112;8.896;2023-06-05T11:10:17;7.27;;;3.50;;
5125;SDS011;63008;53.112;8.896;2023-06-05T11:12:22;6.40;;;3.37;;
5125;SDS011;63008;53.112;8.896;2023-06-05T11:14:23;4.83;;;3.00;;
5125;SDS011;63008;53.112;8.896;2023-06-05T11:16:34;9.80;;;3.33;;
5125;SDS011;63008;53.112;8.896;2023-06-05T11:18:38;3.63;;;3.20;;
5125;SDS011;63008;53.112;8.896;2023-06-05T11:30:06;4.03;;;2.90;;
5125;SDS011;63008;53.112;8.896;2023-06-05T11:32:14;3.30;;;3.00;;
5125;SDS011;63008;53.112;8.896;2023-06-05T11:34:15;3.23;;;3.03;;
5125;SDS011;63008;53.112;8.896;2023-06-05T11:36:16;5.57;;;3.40;;
5125;SDS011;63008;53.112;8.896;2023-06-05T11:38:25;3.83;;;3.40;;
5125;SDS011;63008;53.112;8.896;2023-06-05T11:40:26;5.97;;;3.03;;
5125;SDS011;63008;53.112;8.896;2023-06-05T11:42:27;3.80;;;3.20;;
5125;SDS011;63008;53.112;8.896;2023-06-05T11:44:31;6.03;;;3.43;;
5125;SDS011;63008;53.112;8.896;2023-06-05T11:46:36;2.90;;;2.70;;
5125;SDS011;63008;53.112;8.896;2023-06-05T11:48:45;2.70;;;2.10;;
5125;SDS011;63008;53.112;8.896;2023-06-05T11:55:11;2.90;;;2.63;;
5125;SDS011;63008;53.112;8.896;2023-06-05T11:57:15;3.37;;;2.80;;
5125;SDS011;63008;53.112;8.896;2023-06-05T11:59:18;4.30;;;2.67;;
5125;SDS011;63008;53.112;8.896;2023-06-05T12:01:19;4.90;;;2.40;;
5125;SDS011;63008;53.112;8.896;2023-06-05T12:03:25;3.20;;;2.90;;
5125;SDS011;63008;53.112;8.896;2023-06-05T12:05:28;3.27;;;2.97;;
5125;SDS011;63008;53.112;8.896;2023-06-05T12:07:30;3.00;;;2.37;;
5125;SDS011;63008;53.112;8.896;2023-06-05T12:09:32;3.27;;;2.97;;
5125;SDS011;63008;53.112;8.896;2023-06-05T12:11:33;5.67;;;2.63;;
5125;SDS011;63008;53.112;8.896;2023-06-05T12:13:51;5.60;;;2.37;;
5125;SDS011;63008;53.112;8.896;2023-06-05T12:15:56;4.47;;;2.73;;
5125;SDS011;63008;53.112;8.896;2023-06-05T12:17:58;3.57;;;2.90;;
5125;SDS011;63008;53.112;8.896;2023-06-05T12:20:01;2.57;;;2.30;;
5125;SDS011;63008;53.112;8.896;2023-06-05T12:22:06;5.07;;;2.97;;
5125;SDS011;63008;53.112;8.896;2023-06-05T12:24:07;3.47;;;1.83;;
5125;SDS011;63008;53.112;8.896;2023-06-05T12:26:09;2.40;;;2.20;;
5125;SDS011;63008;53.112;8.896;2023-06-05T12:28:19;7.40;;;2.67;;
5125;SDS011;63008;53.112;8.896;2023-06-05T12:30:20;9.57;;;2.70;;
5125;SDS011;63008;53.112;8.896;2023-06-05T12:32:22;2.30;;;2.10;;
5125;SDS011;63008;53.112;8.896;2023-06-05T12:34:46;4.03;;;2.60;;
5125;SDS011;63008;53.112;8.896;2023-06-05T12:36:47;4.70;;;2.50;;
5125;SDS011;63008;53.112;8.896;2023-06-05T12:38:48;8.60;;;2.60;;
5125;SDS011;63008;53.112;8.896;2023-06-05T12:40:49;4.47;;;2.60;;
5125;SDS011;63008;53.112;8.896;2023-06-05T12:42:50;2.37;;;2.10;;
5125;SDS011;63008;53.112;8.896;2023-06-05T12:44:51;5.47;;;2.40;;
5125;SDS011;63008;53.112;8.896;2023-06-05T12:46:52;3.23;;;2.50;;
5125;SDS011;63008;53.112;8.896;2023-06-05T12:48:53;3.50;;;1.87;;
5125;SDS011;63008;53.112;8.896;2023-06-05T12:50:54;2.73;;;1.93;;
5125;SDS011;63008;53.112;8.896;2023-06-05T12:52:56;2.50;;;2.20;;
5125;SDS011;63008;53.112;8.896;2023-06-05T12:54:57;2.00;;;1.67;;